M/y Ava — MMPY8 — position and weather

sailwx.info

Track history (hours):
 
Tides and Currents Weather Stations Pressure Air Temp Water Temp Dewpoint Dewpoint Depression Visibility Wind Speed Wind Dir Waves Ship Positions

M/y Ava

Last reported at 2015-Aug-05 11:19 UTC. Time now 2015-Aug-05 12:28 UTC.
Position N 43°14' E 006°40'.

Length 40 m; draft 2.8 m.

Type: Pleasure craft. MMSI: 232358000.

Date/timePositionNaut miles runAvg speedWind from/ knotsBaromVisibWave heightAir tempDewpointWater temp
2015-Aug-05 11:19N 43°14' E 006°40'3 3.5
2015-Aug-05 10:29N 43°16' E 006°38'0 0.0
2015-Aug-04 14:26N 43°16' E 006°38'8 9.3
2015-Aug-04 13:34N 43°21' E 006°47'1211.4
2015-Aug-04 12:33N 43°28' E 007°00'1111.1
2015-Aug-04 11:33N 43°36' E 007°10'3 3.1
2015-Aug-04 10:33N 43°39' E 007°11'0 0.0
2015-Aug-04 09:33N 43°39' E 007°11'  
2015-Aug-01 11:33N 43°39' E 007°11'6 6.4
2015-Aug-01 10:33N 43°33' E 007°09'1110.7
2015-Aug-01 09:33N 43°26' E 006°58'1110.6
2015-Aug-01 08:33N 43°20' E 006°46'7 0.1
2015-Jul-30 11:14N 43°16' E 006°38'1 0.7
2015-Jul-30 10:30N 43°16' E 006°38'3 3.7
2015-Jul-30 09:33N 43°15' E 006°42'2 1.2
2015-Jul-30 08:18N 43°14' E 006°40'0 0.0
2015-Jul-30 07:33N 43°14' E 006°40'0 0.0
2015-Jul-30 06:33N 43°14' E 006°40'0 0.0
2015-Jul-30 05:33N 43°14' E 006°40'0 0.0
2015-Jul-30 04:33N 43°14' E 006°40'0 0.0
2015-Jul-30 03:32N 43°14' E 006°40'0 0.0
2015-Jul-30 02:33N 43°14' E 006°40'0 0.0
2015-Jul-30 01:31N 43°14' E 006°40'0 0.0
2015-Jul-30 00:33N 43°14' E 006°40'0 0.0
2015-Jul-29 23:33N 43°14' E 006°40'0 0.0
2015-Jul-29 22:33N 43°14' E 006°40'0 0.0
2015-Jul-29 21:32N 43°14' E 006°40'0 0.0
2015-Jul-29 20:29N 43°14' E 006°40'0 0.0
2015-Jul-29 19:33N 43°14' E 006°40'0 0.0
2015-Jul-29 18:32N 43°14' E 006°40'0 0.4
2015-Jul-29 17:29N 43°14' E 006°41'0 0.0
2015-Jul-29 16:32N 43°14' E 006°41'0 0.0
2015-Jul-29 15:32N 43°14' E 006°41'0 0.0
2015-Jul-29 14:30N 43°14' E 006°41'6 1.1
2015-Jul-29 08:33N 43°19' E 006°46'1111.4
2015-Jul-29 07:33N 43°27' E 006°57'1111.0
2015-Jul-29 06:33N 43°33' E 007°09'2 2.1
2015-Jul-29 05:33N 43°35' E 007°08'0 0.0
2015-Jul-29 04:33N 43°35' E 007°08'0 0.0
2015-Jul-29 03:33N 43°35' E 007°08'0 0.0
2015-Jul-29 02:33N 43°35' E 007°08'0 0.0
2015-Jul-29 01:33N 43°35' E 007°08'0 0.0
2015-Jul-29 00:33N 43°35' E 007°08'0 0.0
2015-Jul-28 23:33N 43°35' E 007°08'0 0.0
2015-Jul-28 22:33N 43°35' E 007°08'0 0.0
2015-Jul-28 21:33N 43°35' E 007°08'0 0.0
2015-Jul-28 20:33N 43°35' E 007°08'0 0.0
2015-Jul-28 19:33N 43°35' E 007°08'0 0.0
2015-Jul-28 18:33N 43°35' E 007°08'0 0.1
2015-Jul-28 17:33N 43°35' E 007°08'5 2.1
2015-Jul-28 15:13N 43°31' E 007°04'0 0.0
2015-Jul-28 14:30N 43°31' E 007°04'0 0.0
2015-Jul-28 13:33N 43°31' E 007°04'0 0.0
2015-Jul-28 12:29N 43°31' E 007°04'0 0.0
2015-Jul-28 11:30N 43°31' E 007°04'0 0.0
2015-Jul-28 10:31N 43°31' E 007°04'4 0.1
2015-Jul-26 16:22N 43°29' E 006°59'911.3
2015-Jul-26 15:33N 43°21' E 006°52'10 8.7
2015-Jul-26 14:23N 43°14' E 006°42'5 2.4
2015-Jul-26 12:24N 43°18' E 006°39'910.6
2015-Jul-26 11:33N 43°22' E 006°50'  
Track history (hours):
 
Tides and Currents Weather Stations Pressure Air Temp Water Temp Dewpoint Dewpoint Depression Visibility Wind Speed Wind Dir Waves Ship Positions

M/y Ava

Last reported at 2015-Aug-05 11:19 UTC. Time now 2015-Aug-05 12:28 UTC.
Position N 43°14' E 006°40'.

Length 40 m; draft 2.8 m.

Type: Pleasure craft. MMSI: 232358000.

Date/timePositionNaut miles runAvg speedWind from/ knotsBaromVisibWave heightAir tempDewpointWater temp
2015-Aug-05 11:19N 43°14' E 006°40'3 3.5
2015-Aug-05 10:29N 43°16' E 006°38'0 0.0
2015-Aug-04 14:26N 43°16' E 006°38'8 9.3
2015-Aug-04 13:34N 43°21' E 006°47'1211.4
2015-Aug-04 12:33N 43°28' E 007°00'1111.1
2015-Aug-04 11:33N 43°36' E 007°10'3 3.1
2015-Aug-04 10:33N 43°39' E 007°11'0 0.0
2015-Aug-04 09:33N 43°39' E 007°11'  
2015-Aug-01 11:33N 43°39' E 007°11'6 6.4
2015-Aug-01 10:33N 43°33' E 007°09'1110.7
2015-Aug-01 09:33N 43°26' E 006°58'1110.6
2015-Aug-01 08:33N 43°20' E 006°46'7 0.1
2015-Jul-30 11:14N 43°16' E 006°38'1 0.7
2015-Jul-30 10:30N 43°16' E 006°38'3 3.7
2015-Jul-30 09:33N 43°15' E 006°42'2 1.2
2015-Jul-30 08:18N 43°14' E 006°40'0 0.0
2015-Jul-30 07:33N 43°14' E 006°40'0 0.0
2015-Jul-30 06:33N 43°14' E 006°40'0 0.0
2015-Jul-30 05:33N 43°14' E 006°40'0 0.0
2015-Jul-30 04:33N 43°14' E 006°40'0 0.0
2015-Jul-30 03:32N 43°14' E 006°40'0 0.0
2015-Jul-30 02:33N 43°14' E 006°40'0 0.0
2015-Jul-30 01:31N 43°14' E 006°40'0 0.0
2015-Jul-30 00:33N 43°14' E 006°40'0 0.0
2015-Jul-29 23:33N 43°14' E 006°40'0 0.0
2015-Jul-29 22:33N 43°14' E 006°40'0 0.0
2015-Jul-29 21:32N 43°14' E 006°40'0 0.0
2015-Jul-29 20:29N 43°14' E 006°40'0 0.0
2015-Jul-29 19:33N 43°14' E 006°40'0 0.0
2015-Jul-29 18:32N 43°14' E 006°40'0 0.4
2015-Jul-29 17:29N 43°14' E 006°41'0 0.0
2015-Jul-29 16:32N 43°14' E 006°41'0 0.0
2015-Jul-29 15:32N 43°14' E 006°41'0 0.0
2015-Jul-29 14:30N 43°14' E 006°41'6 1.1
2015-Jul-29 08:33N 43°19' E 006°46'1111.4
2015-Jul-29 07:33N 43°27' E 006°57'1111.0
2015-Jul-29 06:33N 43°33' E 007°09'2 2.1
2015-Jul-29 05:33N 43°35' E 007°08'0 0.0
2015-Jul-29 04:33N 43°35' E 007°08'0 0.0
2015-Jul-29 03:33N 43°35' E 007°08'0 0.0
2015-Jul-29 02:33N 43°35' E 007°08'0 0.0
2015-Jul-29 01:33N 43°35' E 007°08'0 0.0
2015-Jul-29 00:33N 43°35' E 007°08'0 0.0
2015-Jul-28 23:33N 43°35' E 007°08'0 0.0
2015-Jul-28 22:33N 43°35' E 007°08'0 0.0
2015-Jul-28 21:33N 43°35' E 007°08'0 0.0
2015-Jul-28 20:33N 43°35' E 007°08'0 0.0
2015-Jul-28 19:33N 43°35' E 007°08'0 0.0
2015-Jul-28 18:33N 43°35' E 007°08'0 0.1
2015-Jul-28 17:33N 43°35' E 007°08'5 2.1
2015-Jul-28 15:13N 43°31' E 007°04'0 0.0
2015-Jul-28 14:30N 43°31' E 007°04'0 0.0
2015-Jul-28 13:33N 43°31' E 007°04'0 0.0
2015-Jul-28 12:29N 43°31' E 007°04'0 0.0
2015-Jul-28 11:30N 43°31' E 007°04'0 0.0
2015-Jul-28 10:31N 43°31' E 007°04'4 0.1
2015-Jul-26 16:22N 43°29' E 006°59'911.3
2015-Jul-26 15:33N 43°21' E 006°52'10 8.7
2015-Jul-26 14:23N 43°14' E 006°42'5 2.4
2015-Jul-26 12:24N 43°18' E 006°39'910.6
2015-Jul-26 11:33N 43°22' E 006°50'  

Dump ship's entire track history